Time;durP1;ratioP1;P1;durP2;ratioP2;P2;SDS_P1;SDS_P2;PMS_P1;PMS_P2;Temp;Humidity;BMP_temperature;BMP_pressure;BME280_temperature;BME280_humidity;BME280_pressure;Samples;Min_cycle;Max_cycle;Signal;HPM_P1;HPM_P2
2022/09/16 00:01:33;;;;;;;3.17;1.50;;;;;;;11.39;100.00;98516.44;10652801;27;20512;-72
2022/09/16 00:06:35;;;;;;;2.35;1.60;;;;;;;11.40;100.00;98527.09;10651826;27;20039;-72
2022/09/16 00:11:37;;;;;;;3.13;1.88;;;;;;;11.42;100.00;98513.03;10641162;27;20394;-72
2022/09/16 00:16:40;;;;;;;3.03;1.50;;;;;;;11.48;100.00;98519.94;10643531;27;20055;-72
2022/09/16 00:21:42;;;;;;;3.67;1.65;;;;;;;11.50;100.00;98519.59;10649123;27;20055;-72
2022/09/16 00:26:44;;;;;;;4.32;1.67;;;;;;;11.47;100.00;98513.63;10669685;27;20039;-72
2022/09/16 00:31:46;;;;;;;2.03;1.85;;;;;;;11.48;100.00;98517.19;10655455;27;20043;-72
2022/09/16 00:36:48;;;;;;;2.90;1.88;;;;;;;11.47;100.00;98505.41;10656871;27;20043;-72
2022/09/16 00:41:51;;;;;;;2.35;1.30;;;;;;;11.46;100.00;98511.22;10648515;27;20054;-72
2022/09/16 00:46:53;;;;;;;4.25;2.15;;;;;;;11.42;100.00;98515.78;10655436;27;20059;-72
2022/09/16 00:52:02;;;;;;;2.20;1.38;;;;;;;11.40;100.00;98515.31;10653256;27;20043;-72
2022/09/16 00:57:07;;;;;;;1.90;1.50;;;;;;;11.40;100.00;98501.56;10649773;27;20138;-72
2022/09/16 01:02:16;;;;;;;2.35;1.70;;;;;;;11.40;100.00;98490.59;10652547;27;20058;-72
2022/09/16 01:07:25;;;;;;;1.50;1.00;;;;;;;11.40;100.00;98496.88;10640633;27;20043;-72
2022/09/16 01:12:30;;;;;;;3.97;1.50;;;;;;;11.36;100.00;98495.97;10635911;27;20120;-72
2022/09/16 01:17:52;;;;;;;4.70;1.63;;;;;;;11.35;100.00;98490.81;10640412;27;20039;-72
2022/09/16 01:23:00;;;;;;;1.88;1.30;;;;;;;11.33;100.00;98498.59;10613717;27;20433;-72
2022/09/16 01:28:05;;;;;;;;;;;;;;;11.33;100.00;98495.84;10660540;27;20512;-72
2022/09/16 01:33:35;;;;;;;3.35;1.42;;;;;;;11.35;100.00;98488.88;10651667;27;19919;-72
2022/09/16 01:38:37;;;;;;;2.28;1.52;;;;;;;11.33;100.00;98485.66;10634190;27;20050;-72
2022/09/16 01:44:02;;;;;;;2.50;1.55;;;;;;;11.32;100.00;98489.56;10652360;27;20042;-72
2022/09/16 01:49:19;;;;;;;3.78;1.27;;;;;;;11.32;100.00;98495.03;10647202;27;20031;-72
2022/09/16 01:54:41;;;;;;;3.90;1.60;;;;;;;11.31;100.00;98487.16;10631772;27;20513;-72
2022/09/16 01:59:47;;;;;;;5.25;1.60;;;;;;;11.29;100.00;98475.72;10650331;27;20043;-72
2022/09/16 02:04:56;;;;;;;1.35;1.25;;;;;;;11.24;100.00;98484.13;10632698;27;20093;-72
2022/09/16 02:10:05;;;;;;;2.55;1.55;;;;;;;11.19;100.00;98487.91;10662426;27;20042;-72
2022/09/16 02:15:17;;;;;;;1.85;1.35;;;;;;;11.18;100.00;98491.78;10646833;27;20043;-72
2022/09/16 02:20:24;;;;;;;3.13;1.52;;;;;;;11.24;100.00;98492.38;10637033;27;20038;-71
2022/09/16 02:25:26;;;;;;;3.13;1.42;;;;;;;11.24;100.00;98484.13;10644496;27;20042;-72
2022/09/16 02:30:28;;;;;;;5.50;1.42;;;;;;;11.24;100.00;98492.38;10648464;27;20416;-72
2022/09/16 02:35:33;;;;;;;2.35;1.35;;;;;;;11.16;100.00;98489.38;10645331;27;20078;-71
2022/09/16 02:40:46;;;;;;;2.03;1.30;;;;;;;11.08;100.00;98484.75;10631174;27;20039;-72
2022/09/16 02:46:10;;;;;;;1.45;1.33;;;;;;;11.05;100.00;98493.66;10647765;27;20061;-72
2022/09/16 02:51:43;;;;;;;2.00;1.30;;;;;;;10.97;100.00;98486.34;10636869;27;20043;-72
2022/09/16 02:56:46;;;;;;;4.20;1.60;;;;;;;10.94;100.00;98491.69;10646218;27;20035;-72
2022/09/16 03:01:48;;;;;;;2.75;1.52;;;;;;;10.93;100.00;98490.88;10652352;27;20043;-72
2022/09/16 03:06:50;;;;;;;2.65;1.50;;;;;;;10.93;100.00;98501.84;10658267;27;20141;-73
2022/09/16 03:12:01;;;;;;;4.32;1.75;;;;;;;10.89;100.00;98498.16;10655655;27;20417;-72
2022/09/16 03:17:40;;;;;;;3.70;1.40;;;;;;;10.83;100.00;98505.81;10650783;27;20077;-72
2022/09/16 03:23:21;;;;;;;1.70;1.13;;;;;;;10.82;100.00;98498.72;10657401;27;20046;-72
2022/09/16 03:28:27;;;;;;;2.88;1.50;;;;;;;10.80;100.00;98511.16;10667849;27;20500;-72
2022/09/16 03:33:43;;;;;;;2.20;1.27;;;;;;;10.71;100.00;98508.47;10630938;27;20047;-72
2022/09/16 03:38:45;;;;;;;2.70;1.20;;;;;;;10.69;100.00;98509.94;10649362;27;20055;-72
2022/09/16 03:43:55;;;;;;;2.58;1.30;;;;;;;10.69;100.00;98508.00;10648498;27;20043;-72
2022/09/16 03:48:58;;;;;;;2.72;1.30;;;;;;;10.72;100.00;98503.78;10659528;27;20031;-72
2022/09/16 03:54:00;;;;;;;1.65;1.27;;;;;;;10.72;100.00;98509.28;10658098;27;20051;-71
2022/09/16 03:59:03;;;;;;;2.38;1.30;;;;;;;10.69;100.00;98510.75;10658241;27;20047;-71
2022/09/16 04:04:05;;;;;;;2.85;1.30;;;;;;;10.74;100.00;98512.47;10657598;27;20051;-71
2022/09/16 04:09:11;;;;;;;1.58;1.20;;;;;;;10.74;100.00;98517.97;10658006;27;20047;-71
2022/09/16 04:14:13;;;;;;;2.65;1.52;;;;;;;10.80;100.00;98517.47;10654600;27;20050;-72
2022/09/16 04:19:15;;;;;;;1.83;1.30;;;;;;;10.79;100.00;98518.59;10656082;27;20047;-72
2022/09/16 04:24:17;;;;;;;2.25;1.38;;;;;;;10.73;100.00;98514.44;10656187;27;20050;-72
2022/09/16 04:29:19;;;;;;;2.22;1.30;;;;;;;10.68;100.00;98514.63;10654384;27;20058;-72
2022/09/16 04:34:22;;;;;;;2.17;1.00;;;;;;;10.74;100.00;98512.47;10657047;27;20035;-72
2022/09/16 04:39:24;;;;;;;1.88;1.38;;;;;;;10.78;99.95;98513.44;10655945;27;20054;-72
2022/09/16 04:44:26;;;;;;;2.00;1.40;;;;;;;10.86;99.20;98515.31;10656296;27;20047;-72
2022/09/16 04:49:28;;;;;;;4.03;1.83;;;;;;;11.10;99.26;98512.66;10655863;27;20497;-72
2022/09/16 04:54:30;;;;;;;2.30;1.50;;;;;;;11.23;98.50;98519.03;10655676;27;20413;-73
2022/09/16 04:59:33;;;;;;;3.38;1.35;;;;;;;11.27;97.92;98513.66;10654115;27;20401;-72
2022/09/16 05:04:35;;;;;;;3.15;1.35;;;;;;;11.26;97.25;98515.59;10654503;27;20039;-73
2022/09/16 05:09:37;;;;;;;1.17;1.05;;;;;;;11.23;97.08;98518.22;10654793;27;20045;-73
2022/09/16 05:14:39;;;;;;;1.80;1.30;;;;;;;11.23;96.98;98518.22;10655296;27;20050;-71
2022/09/16 05:19:41;;;;;;;1.63;1.20;;;;;;;11.23;96.43;98512.72;10656115;27;20047;-72
2022/09/16 05:24:44;;;;;;;2.45;1.48;;;;;;;11.23;96.09;98507.25;10656356;27;20046;-71
2022/09/16 05:29:46;;;;;;;1.25;1.08;;;;;;;11.17;96.28;98507.47;10652514;27;20051;-73
2022/09/16 05:34:49;;;;;;;1.15;1.05;;;;;;;11.13;95.48;98501.03;10650911;27;20035;-72
2022/09/16 05:39:51;;;;;;;1.30;1.20;;;;;;;11.18;94.98;98505.50;10648802;27;20039;-73
2022/09/16 05:44:53;;;;;;;1.83;1.48;;;;;;;11.65;93.76;98495.03;10654500;27;20046;-72
2022/09/16 05:49:56;;;;;;;2.65;1.20;;;;;;;12.67;92.96;98498.72;10637296;27;20425;-72
2022/09/16 05:54:58;;;;;;;2.15;1.30;;;;;;;13.18;89.08;98493.53;10655391;27;20492;-73
2022/09/16 06:00:00;;;;;;;2.03;1.10;;;;;;;13.37;85.61;98488.19;10656432;27;20034;-73
2022/09/16 06:05:03;;;;;;;2.00;1.23;;;;;;;13.35;83.31;98500.69;10647098;27;20047;-72
2022/09/16 06:10:10;;;;;;;1.38;0.65;;;;;;;13.26;82.24;98492.59;10653782;27;20042;-72
2022/09/16 06:15:12;;;;;;;;;;;;;;;12.97;81.14;98497.25;10653491;27;20496;-73
2022/09/16 06:20:15;;;;;;;1.23;1.05;;;;;;;12.73;81.66;98491.81;10658382;27;19930;-73
2022/09/16 06:25:17;;;;;;;3.33;1.42;;;;;;;12.54;82.12;98494.38;10647755;27;20039;-73
2022/09/16 06:30:19;;;;;;;2.95;1.40;;;;;;;12.32;83.14;98496.47;10652028;27;20682;-71
2022/09/16 06:35:22;;;;;;;2.40;1.20;;;;;;;12.22;83.53;98504.38;10616251;28;20047;-72
2022/09/16 06:40:24;;;;;;;2.47;1.17;;;;;;;12.22;83.92;98477.69;10652120;28;20051;-72
2022/09/16 06:45:28;;;;;;;2.47;1.60;;;;;;;12.15;84.31;98490.38;10656506;27;20057;-72
2022/09/16 06:50:30;;;;;;;1.92;1.55;;;;;;;12.14;84.26;98500.56;10661256;27;20035;-72
2022/09/16 06:55:38;;;;;;;3.00;1.08;;;;;;;12.00;83.98;98511.94;10661204;27;20039;-73
2022/09/16 07:00:40;;;;;;;2.95;1.50;;;;;;;12.13;84.23;98496.22;10661467;27;20066;-72
2022/09/16 07:05:43;;;;;;;4.30;1.60;;;;;;;12.84;83.40;98498.44;10660830;27;20669;-73
2022/09/16 07:11:16;;;;;;;4.85;1.60;;;;;;;13.33;81.10;98491.97;10642555;27;20532;-73
2022/09/16 07:16:21;;;;;;;1.55;1.30;;;;;;;13.40;80.34;98498.50;10661615;27;20043;-73
2022/09/16 07:21:28;;;;;;;6.80;1.33;;;;;;;13.36;79.21;98494.81;10661067;27;20682;-72
2022/09/16 07:26:33;;;;;;;4.53;1.27;;;;;;;13.16;78.09;98484.78;10660683;27;20519;-73
2022/09/16 07:31:37;;;;;;;1.38;1.13;;;;;;;13.08;77.94;98494.00;10649027;27;20039;-73
2022/09/16 07:36:44;;;;;;;1.40;0.80;;;;;;;13.10;78.31;98505.47;10622461;27;20405;-73
2022/09/16 07:41:47;;;;;;;6.55;1.20;;;;;;;12.99;78.08;98502.41;10657812;27;20066;-73
2022/09/16 07:46:50;;;;;;;1.98;1.05;;;;;;;12.91;78.93;98506.91;10658667;27;20566;-72
2022/09/16 07:51:52;;;;;;;2.15;1.38;;;;;;;12.73;78.33;98513.84;10658921;27;20047;-72
2022/09/16 07:56:54;;;;;;;2.05;1.30;;;;;;;12.67;79.29;98505.03;10640145;27;20074;-73
2022/09/16 08:01:56;;;;;;;1.20;0.77;;;;;;;12.77;80.03;98498.22;10658894;27;20046;-73
2022/09/16 08:06:58;;;;;;;2.63;1.00;;;;;;;12.73;79.61;98502.81;10658230;27;20050;-72
2022/09/16 08:12:03;;;;;;;2.05;1.30;;;;;;;12.63;79.58;98504.09;10657503;27;20035;-72
2022/09/16 08:17:06;;;;;;;1.65;1.08;;;;;;;12.58;80.19;98504.34;10660085;27;20386;-72
2022/09/16 08:22:08;;;;;;;3.88;1.50;;;;;;;12.45;80.57;98499.19;10653911;27;20035;-72
2022/09/16 08:27:10;;;;;;;2.75;1.42;;;;;;;12.31;80.24;98500.34;10657785;27;20054;-73
2022/09/16 08:32:13;;;;;;;7.55;1.63;;;;;;;12.31;80.93;98497.59;10657812;27;20097;-73
2022/09/16 08:37:15;;;;;;;1.63;1.38;;;;;;;12.40;81.00;98508.50;10657488;27;20043;-72
2022/09/16 08:42:35;;;;;;;2.88;1.17;;;;;;;12.53;80.77;98496.34;10657712;27;20119;-72
2022/09/16 08:47:53;;;;;;;2.50;1.13;;;;;;;12.63;79.99;98497.78;10681703;27;20038;-72
2022/09/16 08:52:56;;;;;;;2.42;1.17;;;;;;;12.81;79.48;98503.81;10653731;27;20043;-72
2022/09/16 08:58:02;;;;;;;3.35;1.27;;;;;;;13.17;78.93;98500.16;10637651;27;20039;-72
2022/09/16 09:03:29;;;;;;;2.00;1.40;;;;;;;13.40;77.31;98500.44;10635677;27;20050;-73
2022/09/16 09:08:46;;;;;;;4.40;1.35;;;;;;;13.34;76.05;98496.31;10650023;27;20054;-73
2022/09/16 09:14:26;;;;;;;3.60;1.63;;;;;;;13.15;76.40;98497.75;10655838;27;20031;-73
2022/09/16 09:20:06;;;;;;;3.58;1.25;;;;;;;12.98;75.82;98487.84;10655595;27;20042;-73
2022/09/16 09:25:23;;;;;;;3.58;1.40;;;;;;;13.18;76.46;98490.75;10637650;27;20034;-73
2022/09/16 09:30:27;;;;;;;2.88;1.42;;;;;;;13.10;76.59;98500.75;10655061;27;20046;-73
2022/09/16 09:35:49;;;;;;;2.42;0.95;;;;;;;13.01;76.70;98496.53;10620219;27;20567;-73
2022/09/16 09:40:58;;;;;;;6.82;1.38;;;;;;;12.69;78.18;98518.44;10651534;27;20047;-73
2022/09/16 09:46:05;;;;;;;2.97;1.10;;;;;;;12.32;80.45;98526.72;10654794;27;20047;-73
2022/09/16 09:51:36;;;;;;;2.33;0.77;;;;;;;12.09;82.64;98522.81;10636354;27;20054;-73
2022/09/16 09:56:43;;;;;;;3.03;1.17;;;;;;;11.89;84.26;98526.44;10650511;27;20050;-73
2022/09/16 10:01:45;;;;;;;5.00;1.50;;;;;;;11.86;84.62;98525.19;10654456;27;20054;-72
2022/09/16 10:06:48;;;;;;;1.58;1.27;;;;;;;11.89;86.14;98526.44;10654235;27;20528;-72
2022/09/16 10:11:56;;;;;;;1.95;1.17;;;;;;;11.93;86.79;98535.63;10603731;28;20051;-72
2022/09/16 10:17:01;;;;;;;3.95;1.80;;;;;;;11.91;87.88;98530.47;10609658;28;20031;-72
2022/09/16 10:22:22;;;;;;;3.03;1.60;;;;;;;11.88;89.36;98536.66;10622647;28;20043;-72
2022/09/16 10:27:36;;;;;;;4.32;1.20;;;;;;;11.74;89.95;98538.88;10629794;27;20055;-72
2022/09/16 10:32:45;;;;;;;2.03;1.30;;;;;;;11.60;89.99;98532.88;10627585;27;20032;-72
2022/09/16 10:37:56;;;;;;;3.95;1.52;;;;;;;11.65;89.07;98535.44;10606273;27;20076;-72
2022/09/16 10:43:03;;;;;;;4.40;1.27;;;;;;;11.80;89.14;98523.00;10667632;27;20041;-72
2022/09/16 10:48:06;;;;;;;;;;;;;;;11.98;89.09;98524.41;10647471;27;20043;-72
2022/09/16 10:53:32;;;;;;;2.00;1.50;;;;;;;12.24;88.40;98524.88;10636510;27;19919;-72
2022/09/16 10:58:34;;;;;;;1.35;1.13;;;;;;;12.36;88.69;98513.09;10664078;27;20039;-72
2022/09/16 11:04:09;;;;;;;3.75;1.38;;;;;;;12.45;88.00;98510.19;10667337;27;20050;-73
2022/09/16 11:09:11;;;;;;;2.25;1.27;;;;;;;12.43;86.04;98507.00;10621254;27;20076;-73
2022/09/16 11:14:35;;;;;;;6.13;1.50;;;;;;;12.51;84.73;98501.38;10648049;27;20118;-72
2022/09/16 11:19:47;;;;;;;4.93;1.30;;;;;;;12.67;84.39;98507.78;10667064;27;20136;-72
2022/09/16 11:24:58;;;;;;;2.50;1.30;;;;;;;12.79;83.30;98506.13;10667378;27;20515;-72
2022/09/16 11:30:03;;;;;;;2.80;1.50;;;;;;;12.81;82.58;98504.63;10659625;27;20536;-73
2022/09/16 11:35:05;;;;;;;2.33;1.70;;;;;;;12.91;81.52;98492.34;10658509;27;20608;-74
2022/09/16 11:40:17;;;;;;;2.03;1.45;;;;;;;12.93;80.31;98490.03;10658838;27;20035;-74
2022/09/16 11:45:43;;;;;;;3.45;1.40;;;;;;;12.95;79.28;98480.28;10641758;27;20493;-74
2022/09/16 11:50:59;;;;;;;3.88;1.55;;;;;;;13.05;78.22;98480.94;10641550;27;20074;-73
2022/09/16 11:56:14;;;;;;;3.35;1.05;;;;;;;13.04;76.77;98480.16;10659056;27;20568;-73
2022/09/16 12:01:41;;;;;;;5.18;1.30;;;;;;;13.10;75.96;98478.72;10657265;27;20035;-73
2022/09/16 12:07:17;;;;;;;2.15;1.50;;;;;;;13.20;75.98;98486.53;10601432;27;20051;-73
2022/09/16 12:12:22;;;;;;;1.63;0.85;;;;;;;13.17;74.86;98476.16;10634376;27;20046;-74
2022/09/16 12:17:28;;;;;;;2.05;1.05;;;;;;;13.14;75.06;98473.31;10639582;27;20047;-73
2022/09/16 12:22:34;;;;;;;3.60;1.00;;;;;;;13.17;74.72;98475.38;10638651;27;20039;-73
2022/09/16 12:28:06;;;;;;;1.20;0.90;;;;;;;13.15;74.81;98481.22;10651635;27;20051;-73
2022/09/16 12:33:18;;;;;;;4.55;1.27;;;;;;;13.17;75.40;98470.66;10625200;27;20054;-73
2022/09/16 12:38:21;;;;;;;5.53;1.30;;;;;;;12.98;74.98;98482.31;10641866;27;20051;-72
2022/09/16 12:43:40;;;;;;;2.88;1.00;;;;;;;12.87;76.60;98481.22;10654744;27;20046;-73
2022/09/16 12:49:16;;;;;;;1.67;1.27;;;;;;;12.82;76.25;98483.41;10656725;27;20047;-73
2022/09/16 12:54:43;;;;;;;1.05;0.90;;;;;;;12.94;76.86;98470.41;10653380;27;20039;-73
2022/09/16 12:59:59;;;;;;;1.60;1.10;;;;;;;12.90;77.27;98471.47;10638655;27;20055;-73
2022/09/16 13:05:23;;;;;;;2.38;1.17;;;;;;;12.98;76.52;98468.56;10659508;27;20718;-74
2022/09/16 13:10:28;;;;;;;2.30;1.10;;;;;;;13.07;75.84;98473.13;10648522;27;20047;-73
2022/09/16 13:15:32;;;;;;;1.35;0.70;;;;;;;13.11;75.46;98474.81;10639462;27;20039;-73
2022/09/16 13:20:39;;;;;;;2.05;1.02;;;;;;;13.11;75.19;98474.81;10649393;27;20140;-73
2022/09/16 13:26:06;;;;;;;1.63;0.70;;;;;;;13.16;74.42;98471.81;10654794;27;20047;-73
2022/09/16 13:31:16;;;;;;;1.80;0.93;;;;;;;13.18;73.56;98465.97;10643629;27;20054;-74
2022/09/16 13:36:18;;;;;;;2.17;0.80;;;;;;;13.14;73.38;98478.81;10652921;27;20076;-74
2022/09/16 13:41:36;;;;;;;1.25;0.90;;;;;;;13.13;73.50;98475.28;10654419;27;20413;-72
2022/09/16 13:46:38;;;;;;;3.33;1.23;;;;;;;13.09;73.68;98470.81;10653970;27;20046;-71
2022/09/16 13:51:46;;;;;;;2.35;1.40;;;;;;;13.13;74.51;98483.53;10653545;27;20049;-71
2022/09/16 13:57:02;;;;;;;1.65;1.00;;;;;;;13.08;75.08;98485.75;10607420;27;20052;-72
2022/09/16 14:02:29;;;;;;;1.58;0.80;;;;;;;12.94;75.83;98486.94;10647248;27;20058;-72
2022/09/16 14:07:49;;;;;;;3.50;1.13;;;;;;;12.79;76.52;98486.88;10647479;27;20042;-72
2022/09/16 14:13:09;;;;;;;2.53;1.17;;;;;;;12.71;76.52;98502.38;10654133;27;20051;-72
2022/09/16 14:18:14;;;;;;;1.63;0.90;;;;;;;12.54;76.19;98513.63;10617514;28;20039;-72
2022/09/16 14:23:18;;;;;;;0.63;0.60;;;;;;;12.28;75.57;98503.78;10631242;28;20051;-72
2022/09/16 14:28:26;;;;;;;0.30;0.30;;;;;;;12.03;76.25;98513.19;10632658;28;20043;-72
2022/09/16 14:33:31;;;;;;;1.90;1.75;;;;;;;11.89;76.54;98521.75;10647805;28;20050;-72
2022/09/16 14:38:38;;;;;;;0.95;0.73;;;;;;;11.84;77.11;98521.19;10631331;28;20039;-73
2022/09/16 14:43:40;;;;;;;0.40;0.40;;;;;;;11.73;77.60;98527.06;10629861;28;20046;-74
2022/09/16 14:48:44;;;;;;;0.43;0.43;;;;;;;11.53;77.89;98536.19;10649342;27;20047;-73
2022/09/16 14:53:58;;;;;;;0.82;0.70;;;;;;;11.37;78.61;98537.97;10657688;27;20571;-73
2022/09/16 14:59:01;;;;;;;1.30;0.40;;;;;;;11.28;80.26;98545.47;10692790;27;20043;-73
2022/09/16 15:04:10;;;;;;;0.47;0.30;;;;;;;11.02;82.10;98549.25;10647288;27;20049;-73
2022/09/16 15:09:25;;;;;;;1.17;0.40;;;;;;;10.89;83.91;98542.06;10637074;27;20507;-73
2022/09/16 15:14:28;;;;;;;0.52;0.50;;;;;;;10.74;85.38;98528.94;10658690;27;20043;-73
2022/09/16 15:19:39;;;;;;;1.52;0.68;;;;;;;10.74;86.03;98534.44;10659231;27;20079;-72
2022/09/16 15:24:42;;;;;;;1.27;0.80;;;;;;;10.78;87.45;98527.16;10654987;27;20032;-72
2022/09/16 15:29:48;;;;;;;2.30;0.80;;;;;;;10.72;87.57;98532.03;10637341;27;20055;-72
2022/09/16 15:35:26;;;;;;;3.15;1.20;;;;;;;10.66;87.55;98524.34;10635341;27;20038;-73
2022/09/16 15:40:31;;;;;;;0.40;0.40;;;;;;;10.54;86.81;98527.78;10610083;27;20047;-72
2022/09/16 15:45:34;;;;;;;1.52;0.80;;;;;;;10.41;85.77;98521.44;10634210;27;20038;-71
2022/09/16 15:50:44;;;;;;;1.55;0.73;;;;;;;10.50;86.34;98519.44;10633478;27;20043;-72
2022/09/16 15:55:54;;;;;;;1.80;0.88;;;;;;;10.49;86.55;98526.06;10650917;27;20425;-74
2022/09/16 16:01:03;;;;;;;1.65;0.95;;;;;;;10.46;85.76;98521.25;10641110;27;20050;-72
2022/09/16 16:06:06;;;;;;;0.95;0.80;;;;;;;10.52;85.73;98525.38;10628763;27;20055;-72
2022/09/16 16:11:14;;;;;;;3.95;1.10;;;;;;;10.42;86.14;98514.81;10615774;28;20054;-72
2022/09/16 16:16:19;;;;;;;1.65;1.00;;;;;;;10.39;86.60;98518.19;10621931;27;20055;-72
2022/09/16 16:21:21;;;;;;;2.08;0.95;;;;;;;10.33;87.00;98514.06;10648479;27;20505;-72
2022/09/16 16:26:23;;;;;;;1.50;1.05;;;;;;;10.29;86.07;98502.16;10615527;28;20048;-72
2022/09/16 16:31:26;;;;;;;1.40;1.00;;;;;;;10.32;86.80;98506.97;10597849;28;20046;-72
2022/09/16 16:36:28;;;;;;;2.30;1.05;;;;;;;10.33;86.88;98516.78;10615114;28;20094;-73
2022/09/16 16:41:30;;;;;;;1.42;1.05;;;;;;;10.34;86.76;98512.13;10603706;27;20398;-72
2022/09/16 16:46:33;;;;;;;3.92;1.13;;;;;;;10.32;87.47;98508.91;10668696;27;20045;-72
2022/09/16 16:51:35;;;;;;;1.25;0.93;;;;;;;10.31;86.81;98510.84;10700113;27;20046;-72
2022/09/16 16:56:39;;;;;;;1.70;0.98;;;;;;;10.41;87.01;98515.97;10699863;27;20045;-72
2022/09/16 17:01:42;;;;;;;2.47;1.30;;;;;;;10.38;86.94;98522.06;10699364;27;20421;-72
2022/09/16 17:06:45;;;;;;;4.28;1.00;;;;;;;10.41;86.91;98517.88;10668657;27;20632;-72
2022/09/16 17:11:56;;;;;;;1.08;0.90;;;;;;;10.45;86.80;98511.41;10614264;27;20054;-72
2022/09/16 17:16:58;;;;;;;1.75;1.05;;;;;;;10.44;86.71;98509.81;10594863;28;20070;-73
2022/09/16 17:22:01;;;;;;;1.45;1.00;;;;;;;10.42;86.66;98511.28;10613096;28;20078;-73
2022/09/16 17:27:04;;;;;;;2.72;1.23;;;;;;;10.35;86.72;98511.78;10612912;28;20036;-73
2022/09/16 17:32:06;;;;;;;1.42;0.80;;;;;;;10.43;86.79;98510.94;10642309;27;20051;-73
2022/09/16 17:37:09;;;;;;;1.75;1.08;;;;;;;10.45;87.33;98502.38;10602369;27;20135;-73
2022/09/16 17:42:11;;;;;;;2.25;1.25;;;;;;;10.47;87.58;98511.06;10652907;27;20058;-72
2022/09/16 17:47:14;;;;;;;3.55;1.70;;;;;;;10.49;87.44;98514.28;10655209;27;20045;-72
2022/09/16 17:52:17;;;;;;;2.28;1.38;;;;;;;10.52;87.05;98506.19;10654878;27;20055;-72
2022/09/16 17:57:21;;;;;;;3.35;1.42;;;;;;;10.49;87.63;98501.38;10619267;27;20046;-72
2022/09/16 18:02:23;;;;;;;3.53;1.40;;;;;;;10.45;87.16;98505.94;10654913;27;20038;-72
2022/09/16 18:07:26;;;;;;;2.42;1.20;;;;;;;10.45;86.37;98494.97;10654074;27;20055;-71
2022/09/16 18:12:28;;;;;;;2.30;1.10;;;;;;;10.46;86.89;98507.53;10653247;27;20058;-73
2022/09/16 18:17:31;;;;;;;1.90;1.52;;;;;;;10.37;87.17;98500.47;10653186;27;20053;-72
2022/09/16 18:22:33;;;;;;;3.75;1.80;;;;;;;10.32;86.97;98496.00;10618052;28;20047;-72
2022/09/16 18:27:35;;;;;;;3.70;2.20;;;;;;;10.29;86.80;98493.13;10653343;28;20050;-71
2022/09/16 18:32:38;;;;;;;3.95;2.10;;;;;;;10.27;86.98;98485.22;10652992;28;20051;-72
2022/09/16 18:37:40;;;;;;;2.72;1.70;;;;;;;10.18;87.59;98478.94;10652912;28;20042;-74
2022/09/16 18:42:43;;;;;;;3.03;1.80;;;;;;;10.20;88.09;98476.69;10658716;27;20062;-72
2022/09/16 18:47:45;;;;;;;1.80;1.48;;;;;;;10.28;88.59;98467.66;10661909;27;20050;-72
2022/09/16 18:52:48;;;;;;;1.73;1.25;;;;;;;10.28;88.66;98464.91;10661228;27;20062;-72
2022/09/16 18:57:50;;;;;;;2.97;1.70;;;;;;;10.32;88.55;98465.84;10661288;27;20408;-72
2022/09/16 19:02:52;;;;;;;2.30;1.63;;;;;;;10.36;88.76;98464.03;10639590;27;20046;-73
2022/09/16 19:07:55;;;;;;;3.17;1.65;;;;;;;10.49;88.32;98462.19;10649177;27;20086;-72
2022/09/16 19:12:58;;;;;;;4.00;1.40;;;;;;;10.53;88.78;98461.19;10637560;27;20058;-73
2022/09/16 19:18:06;;;;;;;3.58;1.63;;;;;;;10.48;88.84;98455.91;10655230;27;20523;-73
2022/09/16 19:23:08;;;;;;;2.75;1.38;;;;;;;10.46;88.47;98455.44;10657213;27;20035;-73
2022/09/16 19:28:10;;;;;;;3.20;1.70;;;;;;;10.49;89.28;98449.28;10638211;27;20038;-72
2022/09/16 19:33:12;;;;;;;3.00;1.42;;;;;;;10.49;88.72;98451.22;10654073;27;20043;-72
2022/09/16 19:38:15;;;;;;;1.85;1.33;;;;;;;10.54;88.44;98446.31;10656285;27;20042;-78
2022/09/16 19:43:17;;;;;;;3.42;1.42;;;;;;;10.54;88.88;98448.25;10616440;27;20058;-72
2022/09/16 19:48:25;;;;;;;2.15;1.70;;;;;;;10.58;89.17;98450.00;10659965;27;20051;-72
2022/09/16 19:53:27;;;;;;;2.90;1.65;;;;;;;10.59;88.90;98450.81;10655017;27;20283;-72
2022/09/16 19:58:36;;;;;;;2.42;1.70;;;;;;;10.62;88.76;98449.34;10634710;27;20039;-72
2022/09/16 20:03:40;;;;;;;2.72;1.50;;;;;;;10.66;88.50;98442.84;10635620;27;20034;-72
2022/09/16 20:08:43;;;;;;;2.05;1.63;;;;;;;10.68;88.75;98445.25;10649187;27;20039;-71
2022/09/16 20:13:54;;;;;;;2.83;1.45;;;;;;;10.62;88.47;98441.94;10656073;27;20050;-71
2022/09/16 20:18:56;;;;;;;3.38;1.77;;;;;;;10.66;88.48;98436.56;10681290;27;20404;-72
2022/09/16 20:23:59;;;;;;;2.85;1.20;;;;;;;10.67;88.48;98440.91;10671111;27;20043;-71
2022/09/16 20:34:29;;;;;;;2.20;1.08;;;;;;;10.62;88.53;98430.16;10652185;27;20047;-71
2022/09/16 20:39:36;;;;;;;3.20;1.40;;;;;;;10.47;88.98;98421.38;10655976;27;20035;-72
2022/09/16 20:44:38;;;;;;;2.90;1.40;;;;;;;10.39;89.43;98427.72;10653316;27;20047;-72
2022/09/16 20:49:40;;;;;;;3.65;1.58;;;;;;;10.43;89.49;98431.44;10626799;27;20046;-71
2022/09/16 20:54:42;;;;;;;1.58;1.25;;;;;;;10.37;89.65;98427.25;10654457;27;20501;-70
2022/09/16 20:59:46;;;;;;;2.13;1.40;;;;;;;10.30;89.96;98427.00;10648286;27;20051;-70
2022/09/16 21:04:48;;;;;;;2.13;1.25;;;;;;;10.16;90.44;98423.69;10663611;27;20043;-69
2022/09/16 21:09:51;;;;;;;3.05;1.50;;;;;;;10.14;90.12;98428.69;10653016;27;20062;-69
2022/09/16 21:14:53;;;;;;;3.75;1.50;;;;;;;10.18;90.29;98424.94;10649753;27;20031;-71
2022/09/16 21:19:56;;;;;;;3.30;1.42;;;;;;;10.17;90.10;98422.53;10647258;27;20039;-71
2022/09/16 21:24:58;;;;;;;3.92;1.50;;;;;;;10.29;90.69;98432.81;10654730;27;20039;-71
2022/09/16 21:30:05;;;;;;;3.92;1.40;;;;;;;10.29;90.34;98427.34;10630159;27;20135;-72
2022/09/16 21:35:15;;;;;;;2.10;1.35;;;;;;;10.23;90.34;98426.72;10650302;27;20038;-71
2022/09/16 21:40:21;;;;;;;3.25;1.05;;;;;;;10.20;90.29;98428.16;10652363;27;20051;-71
2022/09/16 21:45:23;;;;;;;3.20;1.30;;;;;;;10.22;89.75;98434.13;10651084;27;20036;-72
2022/09/16 21:50:26;;;;;;;2.72;1.77;;;;;;;10.31;90.37;98433.28;10637813;27;20055;-71
2022/09/16 21:55:29;;;;;;;1.30;1.13;;;;;;;10.18;90.67;98427.69;10651695;27;20054;-71
2022/09/16 22:00:33;;;;;;;1.77;1.08;;;;;;;10.11;90.26;98424.69;10636102;27;20057;-70
2022/09/16 22:05:36;;;;;;;1.70;1.10;;;;;;;10.16;90.19;98426.41;10649790;27;20563;-71
2022/09/16 22:10:39;;;;;;;3.05;1.58;;;;;;;10.16;90.25;98426.41;10633867;27;20027;-69
2022/09/16 22:15:51;;;;;;;2.38;1.33;;;;;;;10.18;90.39;98424.94;10632465;27;20416;-70
2022/09/16 22:20:53;;;;;;;2.85;1.58;;;;;;;10.20;90.25;98428.16;10646489;27;20042;-70
2022/09/16 22:25:55;;;;;;;2.65;1.63;;;;;;;10.26;90.14;98420.59;10649210;28;20672;-70
2022/09/16 22:31:05;;;;;;;4.95;2.20;;;;;;;10.28;90.10;98434.75;10651935;28;20132;-70
2022/09/16 22:36:10;;;;;;;5.18;1.90;;;;;;;10.31;90.69;98438.75;10650545;28;20237;-70
2022/09/16 22:41:14;;;;;;;2.75;1.92;;;;;;;10.35;90.44;98437.75;10651396;28;20031;-70
2022/09/16 22:46:21;;;;;;;3.13;2.13;;;;;;;10.39;89.97;98440.63;10667391;27;20508;-71
2022/09/16 22:51:24;;;;;;;;;;;;;;;10.34;90.48;98432.63;10654184;27;20050;-71
2022/09/16 22:56:32;;;;;;;1.90;1.50;;;;;;;10.21;90.16;98443.50;10652609;28;19926;-71
2022/09/16 23:01:37;;;;;;;2.42;1.50;;;;;;;10.25;90.30;98446.41;10633247;28;20046;-71
2022/09/16 23:06:39;;;;;;;2.58;1.50;;;;;;;10.35;90.37;98448.72;10650601;27;20035;-71
2022/09/16 23:11:42;;;;;;;2.30;1.90;;;;;;;10.28;90.45;98445.72;10649580;28;20031;-70
2022/09/16 23:16:44;;;;;;;2.67;1.55;;;;;;;10.27;90.04;98439.44;10649104;28;20038;-69
2022/09/16 23:21:48;;;;;;;2.28;1.35;;;;;;;10.28;89.52;98442.97;10648364;28;20046;-70
2022/09/16 23:26:51;;;;;;;1.73;1.25;;;;;;;10.32;89.51;98434.88;10650936;27;20035;-70
2022/09/16 23:31:53;;;;;;;3.80;1.20;;;;;;;10.29;89.12;98430.88;10658297;27;20054;-70
2022/09/16 23:36:55;;;;;;;2.22;1.20;;;;;;;10.22;89.85;98427.84;10655770;27;20048;-70
2022/09/16 23:41:57;;;;;;;2.17;1.20;;;;;;;10.29;89.83;98435.56;10660261;27;20046;-70
2022/09/16 23:46:59;;;;;;;2.00;1.70;;;;;;;10.28;89.47;98426.53;10655596;27;20732;-70
2022/09/16 23:52:02;;;;;;;2.25;1.23;;;;;;;10.17;89.86;98430.75;10656960;27;20047;-70